sensor_id;sensor_type;location;lat;lon;timestamp;P1;durP1;ratioP1;P2;durP2;ratioP2
74375;SDS011;62812;55.188;61.302;2023-08-21T00:00:33;10.18;;;2.78;;
74375;SDS011;62812;55.188;61.302;2023-08-21T00:03:08;10.80;;;2.95;;
74375;SDS011;62812;55.188;61.302;2023-08-21T00:05:35;11.45;;;2.88;;
74375;SDS011;62812;55.188;61.302;2023-08-21T00:08:02;7.20;;;3.00;;
74375;SDS011;62812;55.188;61.302;2023-08-21T00:10:30;9.15;;;2.65;;
74375;SDS011;62812;55.188;61.302;2023-08-21T00:13:02;8.88;;;2.78;;
74375;SDS011;62812;55.188;61.302;2023-08-21T00:15:38;9.40;;;2.60;;
74375;SDS011;62812;55.188;61.302;2023-08-21T00:27:10;6.28;;;2.45;;
74375;SDS011;62812;55.188;61.302;2023-08-21T00:29:42;7.38;;;2.65;;
74375;SDS011;62812;55.188;61.302;2023-08-21T00:32:25;8.82;;;3.00;;
74375;SDS011;62812;55.188;61.302;2023-08-21T00:34:59;5.50;;;2.65;;
74375;SDS011;62812;55.188;61.302;2023-08-21T00:41:00;9.25;;;2.95;;
74375;SDS011;62812;55.188;61.302;2023-08-21T00:43:34;6.78;;;2.92;;
74375;SDS011;62812;55.188;61.302;2023-08-21T00:46:02;6.13;;;3.30;;
74375;SDS011;62812;55.188;61.302;2023-08-21T00:48:34;5.97;;;2.80;;
74375;SDS011;62812;55.188;61.302;2023-08-21T00:51:01;7.53;;;2.80;;
74375;SDS011;62812;55.188;61.302;2023-08-21T00:53:31;6.82;;;3.13;;
74375;SDS011;62812;55.188;61.302;2023-08-21T00:56:01;15.32;;;3.42;;
74375;SDS011;62812;55.188;61.302;2023-08-21T01:05:17;5.78;;;2.90;;
74375;SDS011;62812;55.188;61.302;2023-08-21T01:07:59;8.57;;;3.08;;
74375;SDS011;62812;55.188;61.302;2023-08-21T01:10:44;6.88;;;2.97;;
74375;SDS011;62812;55.188;61.302;2023-08-21T01:13:30;10.55;;;3.88;;
74375;SDS011;62812;55.188;61.302;2023-08-21T01:16:14;10.38;;;3.42;;
74375;SDS011;62812;55.188;61.302;2023-08-21T01:19:13;10.13;;;3.67;;
74375;SDS011;62812;55.188;61.302;2023-08-21T01:27:49;9.15;;;3.08;;
74375;SDS011;62812;55.188;61.302;2023-08-21T01:30:17;6.78;;;3.08;;
74375;SDS011;62812;55.188;61.302;2023-08-21T01:32:48;9.32;;;3.17;;
74375;SDS011;62812;55.188;61.302;2023-08-21T01:35:25;9.77;;;2.88;;
74375;SDS011;62812;55.188;61.302;2023-08-21T01:37:53;8.95;;;3.33;;
74375;SDS011;62812;55.188;61.302;2023-08-21T01:40:21;9.82;;;3.05;;
74375;SDS011;62812;55.188;61.302;2023-08-21T01:48:32;10.30;;;3.17;;
74375;SDS011;62812;55.188;61.302;2023-08-21T01:51:09;5.90;;;2.80;;
74375;SDS011;62812;55.188;61.302;2023-08-21T01:53:35;6.22;;;3.90;;
74375;SDS011;62812;55.188;61.302;2023-08-21T01:56:08;7.63;;;3.28;;
74375;SDS011;62812;55.188;61.302;2023-08-21T01:58:37;7.68;;;2.85;;
74375;SDS011;62812;55.188;61.302;2023-08-21T02:01:08;7.15;;;3.20;;
74375;SDS011;62812;55.188;61.302;2023-08-21T02:03:39;13.23;;;3.47;;
74375;SDS011;62812;55.188;61.302;2023-08-21T02:06:13;8.40;;;3.28;;
74375;SDS011;62812;55.188;61.302;2023-08-21T02:08:50;9.63;;;3.20;;
74375;SDS011;62812;55.188;61.302;2023-08-21T02:11:40;9.57;;;3.13;;
74375;SDS011;62812;55.188;61.302;2023-08-21T02:14:12;10.90;;;3.53;;
74375;SDS011;62812;55.188;61.302;2023-08-21T02:19:38;11.95;;;3.60;;
74375;SDS011;62812;55.188;61.302;2023-08-21T02:25:31;10.10;;;3.40;;
74375;SDS011;62812;55.188;61.302;2023-08-21T02:28:34;12.65;;;3.58;;
74375;SDS011;62812;55.188;61.302;2023-08-21T02:31:11;6.45;;;2.83;;
74375;SDS011;62812;55.188;61.302;2023-08-21T02:33:40;12.27;;;3.42;;
74375;SDS011;62812;55.188;61.302;2023-08-21T02:37:04;9.52;;;3.63;;
74375;SDS011;62812;55.188;61.302;2023-08-21T02:39:42;15.15;;;3.50;;
74375;SDS011;62812;55.188;61.302;2023-08-21T02:42:17;11.57;;;3.33;;
74375;SDS011;62812;55.188;61.302;2023-08-21T02:44:52;11.52;;;3.58;;
74375;SDS011;62812;55.188;61.302;2023-08-21T02:47:30;21.67;;;4.15;;
74375;SDS011;62812;55.188;61.302;2023-08-21T02:50:16;16.98;;;4.05;;
74375;SDS011;62812;55.188;61.302;2023-08-21T02:58:51;7.38;;;4.00;;
74375;SDS011;62812;55.188;61.302;2023-08-21T03:01:25;9.48;;;3.92;;
74375;SDS011;62812;55.188;61.302;2023-08-21T03:04:03;7.43;;;3.63;;
74375;SDS011;62812;55.188;61.302;2023-08-21T03:07:00;13.95;;;4.10;;
74375;SDS011;62812;55.188;61.302;2023-08-21T03:09:41;10.27;;;3.70;;
74375;SDS011;62812;55.188;61.302;2023-08-21T03:12:33;28.35;;;5.22;;
74375;SDS011;62812;55.188;61.302;2023-08-21T03:18:01;9.18;;;3.67;;
74375;SDS011;62812;55.188;61.302;2023-08-21T03:20:33;10.63;;;3.80;;
74375;SDS011;62812;55.188;61.302;2023-08-21T03:23:01;25.58;;;5.80;;
74375;SDS011;62812;55.188;61.302;2023-08-21T03:25:31;9.35;;;3.75;;
74375;SDS011;62812;55.188;61.302;2023-08-21T03:28:02;12.38;;;3.72;;
74375;SDS011;62812;55.188;61.302;2023-08-21T03:30:51;16.63;;;5.05;;
74375;SDS011;62812;55.188;61.302;2023-08-21T03:36:51;10.57;;;3.30;;
74375;SDS011;62812;55.188;61.302;2023-08-21T03:39:24;8.80;;;3.40;;
74375;SDS011;62812;55.188;61.302;2023-08-21T03:41:59;11.55;;;3.65;;
74375;SDS011;62812;55.188;61.302;2023-08-21T03:44:26;11.38;;;4.03;;
74375;SDS011;62812;55.188;61.302;2023-08-21T03:46:59;21.75;;;4.68;;
74375;SDS011;62812;55.188;61.302;2023-08-21T03:49:26;19.15;;;4.60;;
74375;SDS011;62812;55.188;61.302;2023-08-21T03:51:54;9.32;;;4.07;;
74375;SDS011;62812;55.188;61.302;2023-08-21T03:54:21;8.15;;;3.67;;
74375;SDS011;62812;55.188;61.302;2023-08-21T03:56:49;16.70;;;4.30;;
74375;SDS011;62812;55.188;61.302;2023-08-21T03:59:31;10.63;;;4.00;;
74375;SDS011;62812;55.188;61.302;2023-08-21T04:07:58;7.78;;;3.40;;
74375;SDS011;62812;55.188;61.302;2023-08-21T04:10:26;10.77;;;3.55;;
74375;SDS011;62812;55.188;61.302;2023-08-21T04:13:01;15.07;;;3.78;;
74375;SDS011;62812;55.188;61.302;2023-08-21T04:15:37;9.93;;;4.30;;
74375;SDS011;62812;55.188;61.302;2023-08-21T04:18:05;11.40;;;4.30;;
74375;SDS011;62812;55.188;61.302;2023-08-21T06:21:14;8.98;;;5.00;;
74375;SDS011;62812;55.188;61.302;2023-08-21T06:23:48;9.05;;;4.50;;
74375;SDS011;62812;55.188;61.302;2023-08-21T06:26:17;11.13;;;5.03;;
74375;SDS011;62812;55.188;61.302;2023-08-21T07:57:06;8.65;;;4.50;;
74375;SDS011;62812;55.188;61.302;2023-08-21T07:59:34;10.98;;;4.95;;
74375;SDS011;62812;55.188;61.302;2023-08-21T08:02:09;10.52;;;3.97;;
74375;SDS011;62812;55.188;61.302;2023-08-21T08:05:18;9.65;;;4.88;;
74375;SDS011;62812;55.188;61.302;2023-08-21T08:08:16;11.05;;;4.93;;
74375;SDS011;62812;55.188;61.302;2023-08-21T09:22:03;5.60;;;1.80;;
74375;SDS011;62812;55.188;61.302;2023-08-21T09:25:10;4.13;;;1.60;;
74375;SDS011;62812;55.188;61.302;2023-08-21T09:28:20;5.47;;;1.67;;
74375;SDS011;62812;55.188;61.302;2023-08-21T09:32:03;6.03;;;1.70;;
74375;SDS011;62812;55.188;61.302;2023-08-21T21:30:08;5.47;;;1.45;;
74375;SDS011;62812;55.188;61.302;2023-08-21T21:39:46;5.05;;;1.40;;
74375;SDS011;62812;55.188;61.302;2023-08-21T21:42:55;5.90;;;1.58;;
74375;SDS011;62812;55.188;61.302;2023-08-21T22:32:45;6.75;;;2.13;;
74375;SDS011;62812;55.188;61.302;2023-08-21T23:21:35;3.25;;;1.15;;
74375;SDS011;62812;55.188;61.302;2023-08-21T23:29:56;5.55;;;1.58;;
74375;SDS011;62812;55.188;61.302;2023-08-21T23:32:23;4.72;;;1.38;;
74375;SDS011;62812;55.188;61.302;2023-08-21T23:34:51;4.60;;;1.45;;
74375;SDS011;62812;55.188;61.302;2023-08-21T23:37:31;7.03;;;2.33;;
74375;SDS011;62812;55.188;61.302;2023-08-21T23:40:17;4.07;;;1.25;;
74375;SDS011;62812;55.188;61.302;2023-08-21T23:42:48;5.40;;;1.63;;
74375;SDS011;62812;55.188;61.302;2023-08-21T23:45:47;4.28;;;1.27;;
